sensor_id;sensor_type;location;lat;lon;timestamp;P1;durP1;ratioP1;P2;durP2;ratioP2
78563;SDS011;67856;47.754;19.088;2023-12-04T00:01:50;1.80;;;1.20;;
78563;SDS011;67856;47.754;19.088;2023-12-04T00:04:53;1.67;;;1.10;;
78563;SDS011;67856;47.754;19.088;2023-12-04T00:07:55;2.00;;;1.20;;
78563;SDS011;67856;47.754;19.088;2023-12-04T00:10:58;1.80;;;1.10;;
78563;SDS011;67856;47.754;19.088;2023-12-04T00:14:01;1.63;;;1.10;;
78563;SDS011;67856;47.754;19.088;2023-12-04T00:17:03;1.67;;;1.10;;
78563;SDS011;67856;47.754;19.088;2023-12-04T00:20:06;1.55;;;1.10;;
78563;SDS011;67856;47.754;19.088;2023-12-04T00:23:10;1.97;;;1.27;;
78563;SDS011;67856;47.754;19.088;2023-12-04T00:26:12;1.88;;;1.15;;
78563;SDS011;67856;47.754;19.088;2023-12-04T00:29:15;1.75;;;1.20;;
78563;SDS011;67856;47.754;19.088;2023-12-04T00:32:17;2.40;;;1.45;;
78563;SDS011;67856;47.754;19.088;2023-12-04T00:35:20;2.08;;;1.40;;
78563;SDS011;67856;47.754;19.088;2023-12-04T00:38:22;2.37;;;1.53;;
78563;SDS011;67856;47.754;19.088;2023-12-04T00:41:24;2.22;;;1.40;;
78563;SDS011;67856;47.754;19.088;2023-12-04T00:44:27;2.20;;;1.50;;
78563;SDS011;67856;47.754;19.088;2023-12-04T00:47:29;2.38;;;1.42;;
78563;SDS011;67856;47.754;19.088;2023-12-04T00:50:32;2.78;;;1.60;;
78563;SDS011;67856;47.754;19.088;2023-12-04T00:53:34;2.40;;;1.60;;
78563;SDS011;67856;47.754;19.088;2023-12-04T00:56:40;2.28;;;1.65;;
78563;SDS011;67856;47.754;19.088;2023-12-04T00:59:42;2.13;;;1.50;;
78563;SDS011;67856;47.754;19.088;2023-12-04T01:02:45;2.75;;;1.70;;
78563;SDS011;67856;47.754;19.088;2023-12-04T01:05:47;2.80;;;1.75;;
78563;SDS011;67856;47.754;19.088;2023-12-04T01:08:50;3.50;;;2.13;;
78563;SDS011;67856;47.754;19.088;2023-12-04T01:11:52;2.95;;;1.98;;
78563;SDS011;67856;47.754;19.088;2023-12-04T01:14:55;3.00;;;1.95;;
78563;SDS011;67856;47.754;19.088;2023-12-04T01:17:58;3.67;;;2.15;;
78563;SDS011;67856;47.754;19.088;2023-12-04T01:21:02;3.08;;;1.75;;
78563;SDS011;67856;47.754;19.088;2023-12-04T01:24:05;2.53;;;1.43;;
78563;SDS011;67856;47.754;19.088;2023-12-04T01:27:07;2.05;;;1.25;;
78563;SDS011;67856;47.754;19.088;2023-12-04T01:30:10;2.22;;;1.52;;
78563;SDS011;67856;47.754;19.088;2023-12-04T01:33:13;2.25;;;1.30;;
78563;SDS011;67856;47.754;19.088;2023-12-04T01:36:16;1.77;;;1.30;;
78563;SDS011;67856;47.754;19.088;2023-12-04T01:39:19;1.33;;;1.00;;
78563;SDS011;67856;47.754;19.088;2023-12-04T01:42:22;2.15;;;1.30;;
78563;SDS011;67856;47.754;19.088;2023-12-04T01:45:24;2.15;;;1.40;;
78563;SDS011;67856;47.754;19.088;2023-12-04T01:48:26;1.85;;;1.33;;
78563;SDS011;67856;47.754;19.088;2023-12-04T01:51:30;1.67;;;1.33;;
78563;SDS011;67856;47.754;19.088;2023-12-04T01:54:33;1.27;;;1.03;;
78563;SDS011;67856;47.754;19.088;2023-12-04T01:57:36;2.10;;;1.42;;
78563;SDS011;67856;47.754;19.088;2023-12-04T02:00:38;1.55;;;1.20;;
78563;SDS011;67856;47.754;19.088;2023-12-04T02:03:41;1.90;;;1.40;;
78563;SDS011;67856;47.754;19.088;2023-12-04T02:06:44;2.42;;;1.67;;
78563;SDS011;67856;47.754;19.088;2023-12-04T02:09:46;2.37;;;1.40;;
78563;SDS011;67856;47.754;19.088;2023-12-04T02:12:52;2.55;;;1.30;;
78563;SDS011;67856;47.754;19.088;2023-12-04T02:15:54;3.10;;;1.75;;
78563;SDS011;67856;47.754;19.088;2023-12-04T02:19:01;2.90;;;2.03;;
78563;SDS011;67856;47.754;19.088;2023-12-04T02:22:04;2.53;;;1.65;;
78563;SDS011;67856;47.754;19.088;2023-12-04T02:25:06;3.33;;;2.07;;
78563;SDS011;67856;47.754;19.088;2023-12-04T02:28:21;3.30;;;2.28;;
78563;SDS011;67856;47.754;19.088;2023-12-04T02:31:24;3.42;;;1.92;;
78563;SDS011;67856;47.754;19.088;2023-12-04T02:34:28;2.28;;;1.63;;
78563;SDS011;67856;47.754;19.088;2023-12-04T02:37:31;3.35;;;1.80;;
78563;SDS011;67856;47.754;19.088;2023-12-04T02:40:34;3.30;;;1.83;;
78563;SDS011;67856;47.754;19.088;2023-12-04T02:43:36;3.60;;;2.10;;
78563;SDS011;67856;47.754;19.088;2023-12-04T02:46:39;2.95;;;2.08;;
78563;SDS011;67856;47.754;19.088;2023-12-04T02:49:41;3.25;;;2.15;;
78563;SDS011;67856;47.754;19.088;2023-12-04T02:52:44;3.65;;;2.20;;
78563;SDS011;67856;47.754;19.088;2023-12-04T02:55:46;3.70;;;2.17;;
78563;SDS011;67856;47.754;19.088;2023-12-04T02:58:48;3.20;;;2.30;;
78563;SDS011;67856;47.754;19.088;2023-12-04T03:01:51;3.83;;;2.42;;
78563;SDS011;67856;47.754;19.088;2023-12-04T03:04:53;4.20;;;2.75;;
78563;SDS011;67856;47.754;19.088;2023-12-04T03:07:56;3.30;;;2.15;;
78563;SDS011;67856;47.754;19.088;2023-12-04T03:10:58;3.00;;;1.83;;
78563;SDS011;67856;47.754;19.088;2023-12-04T03:14:01;2.22;;;1.60;;
78563;SDS011;67856;47.754;19.088;2023-12-04T03:17:03;2.20;;;1.30;;
78563;SDS011;67856;47.754;19.088;2023-12-04T03:20:06;2.63;;;1.65;;
78563;SDS011;67856;47.754;19.088;2023-12-04T03:23:10;2.97;;;1.80;;
78563;SDS011;67856;47.754;19.088;2023-12-04T03:26:13;2.00;;;1.40;;
78563;SDS011;67856;47.754;19.088;2023-12-04T03:29:15;2.15;;;1.30;;
78563;SDS011;67856;47.754;19.088;2023-12-04T03:32:18;2.20;;;1.45;;
78563;SDS011;67856;47.754;19.088;2023-12-04T03:35:20;1.80;;;1.38;;
78563;SDS011;67856;47.754;19.088;2023-12-04T03:38:22;2.85;;;1.60;;
78563;SDS011;67856;47.754;19.088;2023-12-04T03:41:25;1.90;;;1.20;;
78563;SDS011;67856;47.754;19.088;2023-12-04T03:44:27;2.15;;;1.40;;
78563;SDS011;67856;47.754;19.088;2023-12-04T03:47:30;1.85;;;1.40;;
78563;SDS011;67856;47.754;19.088;2023-12-04T03:50:32;1.73;;;1.20;;
78563;SDS011;67856;47.754;19.088;2023-12-04T03:53:36;1.90;;;1.30;;
78563;SDS011;67856;47.754;19.088;2023-12-04T03:56:38;2.67;;;1.53;;
78563;SDS011;67856;47.754;19.088;2023-12-04T03:59:41;1.55;;;1.15;;
78563;SDS011;67856;47.754;19.088;2023-12-04T04:02:43;1.95;;;1.27;;
78563;SDS011;67856;47.754;19.088;2023-12-04T04:05:46;2.28;;;1.60;;
78563;SDS011;67856;47.754;19.088;2023-12-04T04:08:48;1.98;;;1.30;;
78563;SDS011;67856;47.754;19.088;2023-12-04T04:11:50;1.57;;;1.13;;
78563;SDS011;67856;47.754;19.088;2023-12-04T04:14:53;2.13;;;1.40;;
78563;SDS011;67856;47.754;19.088;2023-12-04T04:17:55;2.35;;;1.20;;
78563;SDS011;67856;47.754;19.088;2023-12-04T04:20:58;1.85;;;1.30;;
78563;SDS011;67856;47.754;19.088;2023-12-04T04:24:00;2.70;;;1.80;;
78563;SDS011;67856;47.754;19.088;2023-12-04T04:27:03;2.27;;;1.40;;
78563;SDS011;67856;47.754;19.088;2023-12-04T04:30:05;2.63;;;1.70;;
78563;SDS011;67856;47.754;19.088;2023-12-04T04:33:08;2.20;;;1.58;;
78563;SDS011;67856;47.754;19.088;2023-12-04T04:36:11;2.45;;;1.75;;
78563;SDS011;67856;47.754;19.088;2023-12-04T04:39:13;3.38;;;1.92;;
78563;SDS011;67856;47.754;19.088;2023-12-04T04:42:16;2.97;;;1.83;;
78563;SDS011;67856;47.754;19.088;2023-12-04T04:45:18;2.72;;;1.85;;
78563;SDS011;67856;47.754;19.088;2023-12-04T04:48:21;2.53;;;1.77;;
78563;SDS011;67856;47.754;19.088;2023-12-04T04:51:23;3.35;;;1.80;;
78563;SDS011;67856;47.754;19.088;2023-12-04T04:54:26;2.80;;;1.80;;
78563;SDS011;67856;47.754;19.088;2023-12-04T04:57:28;2.90;;;1.60;;
78563;SDS011;67856;47.754;19.088;2023-12-04T05:00:31;3.67;;;2.00;;
78563;SDS011;67856;47.754;19.088;2023-12-04T05:03:33;2.92;;;1.80;;
78563;SDS011;67856;47.754;19.088;2023-12-04T05:06:35;2.92;;;1.75;;
78563;SDS011;67856;47.754;19.088;2023-12-04T05:09:38;3.15;;;1.80;;
78563;SDS011;67856;47.754;19.088;2023-12-04T05:12:41;3.67;;;1.80;;
78563;SDS011;67856;47.754;19.088;2023-12-04T05:15:43;2.92;;;1.80;;
78563;SDS011;67856;47.754;19.088;2023-12-04T05:18:45;2.90;;;2.15;;
78563;SDS011;67856;47.754;19.088;2023-12-04T05:21:48;6.85;;;2.03;;
78563;SDS011;67856;47.754;19.088;2023-12-04T05:24:50;4.57;;;2.20;;
78563;SDS011;67856;47.754;19.088;2023-12-04T05:27:53;3.93;;;2.20;;
78563;SDS011;67856;47.754;19.088;2023-12-04T05:30:55;3.72;;;2.22;;
78563;SDS011;67856;47.754;19.088;2023-12-04T05:33:58;5.18;;;2.30;;
78563;SDS011;67856;47.754;19.088;2023-12-04T05:37:00;4.47;;;2.60;;
78563;SDS011;67856;47.754;19.088;2023-12-04T05:40:03;4.15;;;2.45;;
78563;SDS011;67856;47.754;19.088;2023-12-04T05:43:07;4.30;;;2.50;;
78563;SDS011;67856;47.754;19.088;2023-12-04T05:46:09;3.60;;;2.30;;
78563;SDS011;67856;47.754;19.088;2023-12-04T05:49:12;4.03;;;1.98;;
78563;SDS011;67856;47.754;19.088;2023-12-04T05:52:14;3.40;;;2.20;;
78563;SDS011;67856;47.754;19.088;2023-12-04T05:55:17;3.60;;;2.28;;
78563;SDS011;67856;47.754;19.088;2023-12-04T05:58:19;3.70;;;1.90;;
78563;SDS011;67856;47.754;19.088;2023-12-04T06:01:22;4.15;;;2.50;;
78563;SDS011;67856;47.754;19.088;2023-12-04T06:04:24;6.13;;;3.33;;
78563;SDS011;67856;47.754;19.088;2023-12-04T06:07:27;6.10;;;2.85;;
78563;SDS011;67856;47.754;19.088;2023-12-04T06:10:29;4.32;;;2.53;;
78563;SDS011;67856;47.754;19.088;2023-12-04T06:13:32;7.33;;;2.80;;
78563;SDS011;67856;47.754;19.088;2023-12-04T06:16:34;3.72;;;2.20;;
78563;SDS011;67856;47.754;19.088;2023-12-04T06:19:37;3.85;;;2.40;;
78563;SDS011;67856;47.754;19.088;2023-12-04T06:22:39;3.90;;;2.60;;
78563;SDS011;67856;47.754;19.088;2023-12-04T06:25:42;4.35;;;2.78;;
78563;SDS011;67856;47.754;19.088;2023-12-04T06:28:45;4.30;;;2.53;;
78563;SDS011;67856;47.754;19.088;2023-12-04T06:31:48;4.28;;;2.53;;
78563;SDS011;67856;47.754;19.088;2023-12-04T06:34:52;5.60;;;2.90;;
78563;SDS011;67856;47.754;19.088;2023-12-04T06:37:58;9.52;;;3.55;;
78563;SDS011;67856;47.754;19.088;2023-12-04T06:41:04;7.03;;;4.57;;
78563;SDS011;67856;47.754;19.088;2023-12-04T06:44:07;6.10;;;3.43;;
78563;SDS011;67856;47.754;19.088;2023-12-04T06:47:09;6.57;;;3.25;;
78563;SDS011;67856;47.754;19.088;2023-12-04T06:50:14;10.57;;;4.00;;
78563;SDS011;67856;47.754;19.088;2023-12-04T06:53:17;6.85;;;3.80;;
78563;SDS011;67856;47.754;19.088;2023-12-04T06:56:19;10.98;;;4.53;;
78563;SDS011;67856;47.754;19.088;2023-12-04T06:59:22;15.33;;;5.40;;
78563;SDS011;67856;47.754;19.088;2023-12-04T07:02:25;9.48;;;5.15;;
78563;SDS011;67856;47.754;19.088;2023-12-04T07:05:28;9.20;;;5.13;;
78563;SDS011;67856;47.754;19.088;2023-12-04T07:08:30;13.50;;;5.85;;
78563;SDS011;67856;47.754;19.088;2023-12-04T07:11:33;12.77;;;5.75;;
78563;SDS011;67856;47.754;19.088;2023-12-04T07:14:35;15.07;;;5.80;;
78563;SDS011;67856;47.754;19.088;2023-12-04T07:17:38;16.25;;;5.90;;
78563;SDS011;67856;47.754;19.088;2023-12-04T07:20:42;11.52;;;6.03;;
78563;SDS011;67856;47.754;19.088;2023-12-04T07:23:44;11.35;;;6.18;;
78563;SDS011;67856;47.754;19.088;2023-12-04T07:26:47;13.38;;;5.95;;
78563;SDS011;67856;47.754;19.088;2023-12-04T07:29:50;15.47;;;5.90;;
78563;SDS011;67856;47.754;19.088;2023-12-04T07:32:52;11.55;;;5.88;;
78563;SDS011;67856;47.754;19.088;2023-12-04T07:35:55;15.18;;;6.38;;
78563;SDS011;67856;47.754;19.088;2023-12-04T07:38:58;12.13;;;6.32;;
78563;SDS011;67856;47.754;19.088;2023-12-04T07:42:01;11.93;;;6.47;;
78563;SDS011;67856;47.754;19.088;2023-12-04T07:45:14;14.30;;;6.50;;
78563;SDS011;67856;47.754;19.088;2023-12-04T07:48:18;12.52;;;6.07;;
78563;SDS011;67856;47.754;19.088;2023-12-04T07:51:21;13.65;;;7.50;;
78563;SDS011;67856;47.754;19.088;2023-12-04T07:54:23;12.55;;;6.18;;
78563;SDS011;67856;47.754;19.088;2023-12-04T07:57:29;15.45;;;6.40;;
78563;SDS011;67856;47.754;19.088;2023-12-04T08:00:32;15.70;;;5.90;;
78563;SDS011;67856;47.754;19.088;2023-12-04T08:03:35;14.98;;;6.93;;
78563;SDS011;67856;47.754;19.088;2023-12-04T08:06:37;12.80;;;6.72;;
78563;SDS011;67856;47.754;19.088;2023-12-04T08:09:40;11.48;;;5.78;;
78563;SDS011;67856;47.754;19.088;2023-12-04T08:12:48;11.45;;;6.00;;
78563;SDS011;67856;47.754;19.088;2023-12-04T08:15:51;10.50;;;5.73;;
78563;SDS011;67856;47.754;19.088;2023-12-04T08:18:53;16.88;;;6.30;;
78563;SDS011;67856;47.754;19.088;2023-12-04T08:21:56;15.93;;;6.15;;
78563;SDS011;67856;47.754;19.088;2023-12-04T08:24:59;15.57;;;6.35;;
78563;SDS011;67856;47.754;19.088;2023-12-04T08:28:02;13.43;;;6.72;;
78563;SDS011;67856;47.754;19.088;2023-12-04T08:31:04;11.20;;;6.27;;
78563;SDS011;67856;47.754;19.088;2023-12-04T08:34:09;15.07;;;6.45;;
78563;SDS011;67856;47.754;19.088;2023-12-04T08:37:12;15.98;;;7.38;;
78563;SDS011;67856;47.754;19.088;2023-12-04T08:40:15;18.08;;;6.53;;
78563;SDS011;67856;47.754;19.088;2023-12-04T08:43:23;15.13;;;6.88;;
78563;SDS011;67856;47.754;19.088;2023-12-04T08:46:26;18.00;;;7.53;;
78563;SDS011;67856;47.754;19.088;2023-12-04T08:49:29;15.25;;;6.57;;
78563;SDS011;67856;47.754;19.088;2023-12-04T08:52:43;15.93;;;7.07;;
78563;SDS011;67856;47.754;19.088;2023-12-04T08:55:47;14.82;;;8.05;;
78563;SDS011;67856;47.754;19.088;2023-12-04T08:58:49;18.17;;;7.85;;
78563;SDS011;67856;47.754;19.088;2023-12-04T09:01:55;21.63;;;7.20;;
78563;SDS011;67856;47.754;19.088;2023-12-04T09:04:57;21.70;;;8.00;;
78563;SDS011;67856;47.754;19.088;2023-12-04T09:08:01;19.00;;;7.88;;
78563;SDS011;67856;47.754;19.088;2023-12-04T09:11:23;19.70;;;7.90;;
78563;SDS011;67856;47.754;19.088;2023-12-04T09:14:26;18.02;;;7.70;;
78563;SDS011;67856;47.754;19.088;2023-12-04T09:17:30;18.90;;;8.97;;
78563;SDS011;67856;47.754;19.088;2023-12-04T09:20:41;21.27;;;9.48;;
78563;SDS011;67856;47.754;19.088;2023-12-04T09:23:44;17.33;;;8.13;;
78563;SDS011;67856;47.754;19.088;2023-12-04T09:26:52;25.83;;;9.82;;
78563;SDS011;67856;47.754;19.088;2023-12-04T09:29:54;23.40;;;8.98;;
78563;SDS011;67856;47.754;19.088;2023-12-04T09:32:57;22.70;;;8.40;;
78563;SDS011;67856;47.754;19.088;2023-12-04T09:35:59;17.88;;;9.15;;
78563;SDS011;67856;47.754;19.088;2023-12-04T09:39:02;19.90;;;8.13;;
78563;SDS011;67856;47.754;19.088;2023-12-04T09:42:06;18.02;;;7.63;;
78563;SDS011;67856;47.754;19.088;2023-12-04T09:45:09;17.00;;;7.55;;
78563;SDS011;67856;47.754;19.088;2023-12-04T09:48:13;15.67;;;7.67;;
78563;SDS011;67856;47.754;19.088;2023-12-04T09:51:15;19.40;;;7.22;;
78563;SDS011;67856;47.754;19.088;2023-12-04T09:54:18;17.20;;;7.43;;
78563;SDS011;67856;47.754;19.088;2023-12-04T09:57:22;17.42;;;7.68;;
78563;SDS011;67856;47.754;19.088;2023-12-04T10:00:40;14.60;;;7.53;;
78563;SDS011;67856;47.754;19.088;2023-12-04T10:03:58;12.33;;;7.30;;
78563;SDS011;67856;47.754;19.088;2023-12-04T10:07:02;14.20;;;7.00;;
78563;SDS011;67856;47.754;19.088;2023-12-04T10:10:05;18.02;;;6.90;;
78563;SDS011;67856;47.754;19.088;2023-12-04T10:13:11;18.20;;;6.80;;
78563;SDS011;67856;47.754;19.088;2023-12-04T10:16:14;16.05;;;6.68;;
78563;SDS011;67856;47.754;19.088;2023-12-04T10:22:29;13.88;;;6.25;;
78563;SDS011;67856;47.754;19.088;2023-12-04T10:25:33;14.32;;;6.25;;
78563;SDS011;67856;47.754;19.088;2023-12-04T10:28:36;15.65;;;5.85;;
78563;SDS011;67856;47.754;19.088;2023-12-04T10:31:39;17.58;;;6.35;;
78563;SDS011;67856;47.754;19.088;2023-12-04T10:34:41;15.00;;;6.10;;
78563;SDS011;67856;47.754;19.088;2023-12-04T10:37:45;10.80;;;5.47;;
78563;SDS011;67856;47.754;19.088;2023-12-04T10:40:47;14.30;;;5.90;;
78563;SDS011;67856;47.754;19.088;2023-12-04T10:43:50;11.27;;;5.60;;
78563;SDS011;67856;47.754;19.088;2023-12-04T10:47:02;12.50;;;5.88;;
78563;SDS011;67856;47.754;19.088;2023-12-04T10:50:05;13.77;;;5.40;;
78563;SDS011;67856;47.754;19.088;2023-12-04T10:53:13;15.10;;;6.35;;
78563;SDS011;67856;47.754;19.088;2023-12-04T10:56:24;14.07;;;5.70;;
78563;SDS011;67856;47.754;19.088;2023-12-04T10:59:32;13.90;;;5.70;;
78563;SDS011;67856;47.754;19.088;2023-12-04T11:02:37;14.57;;;5.72;;
78563;SDS011;67856;47.754;19.088;2023-12-04T11:05:44;16.33;;;6.03;;
78563;SDS011;67856;47.754;19.088;2023-12-04T11:08:48;14.93;;;6.15;;
78563;SDS011;67856;47.754;19.088;2023-12-04T11:11:51;15.20;;;5.22;;
78563;SDS011;67856;47.754;19.088;2023-12-04T11:14:56;14.05;;;5.38;;
78563;SDS011;67856;47.754;19.088;2023-12-04T11:18:02;13.23;;;6.97;;
78563;SDS011;67856;47.754;19.088;2023-12-04T11:21:08;13.20;;;5.90;;
78563;SDS011;67856;47.754;19.088;2023-12-04T11:24:12;14.70;;;5.95;;
78563;SDS011;67856;47.754;19.088;2023-12-04T11:27:18;10.40;;;5.43;;
78563;SDS011;67856;47.754;19.088;2023-12-04T11:30:21;11.85;;;5.43;;
78563;SDS011;67856;47.754;19.088;2023-12-04T11:33:24;12.60;;;5.50;;
78563;SDS011;67856;47.754;19.088;2023-12-04T11:36:27;14.83;;;5.40;;
78563;SDS011;67856;47.754;19.088;2023-12-04T11:39:30;8.98;;;5.18;;
78563;SDS011;67856;47.754;19.088;2023-12-04T11:42:38;12.27;;;4.97;;
78563;SDS011;67856;47.754;19.088;2023-12-04T11:45:44;10.57;;;5.10;;
78563;SDS011;67856;47.754;19.088;2023-12-04T11:48:54;12.07;;;5.43;;
78563;SDS011;67856;47.754;19.088;2023-12-04T11:52:04;13.53;;;5.43;;
78563;SDS011;67856;47.754;19.088;2023-12-04T11:55:09;23.42;;;4.93;;
78563;SDS011;67856;47.754;19.088;2023-12-04T11:58:12;10.30;;;4.80;;
78563;SDS011;67856;47.754;19.088;2023-12-04T12:01:17;11.10;;;4.85;;
78563;SDS011;67856;47.754;19.088;2023-12-04T12:04:20;8.95;;;5.20;;
78563;SDS011;67856;47.754;19.088;2023-12-04T12:10:47;12.55;;;4.90;;
78563;SDS011;67856;47.754;19.088;2023-12-04T12:13:50;12.55;;;5.30;;
78563;SDS011;67856;47.754;19.088;2023-12-04T12:16:54;11.70;;;5.10;;
78563;SDS011;67856;47.754;19.088;2023-12-04T12:19:57;7.45;;;4.72;;
78563;SDS011;67856;47.754;19.088;2023-12-04T12:23:00;12.67;;;4.57;;
78563;SDS011;67856;47.754;19.088;2023-12-04T12:26:03;9.50;;;5.05;;
78563;SDS011;67856;47.754;19.088;2023-12-04T12:29:06;11.07;;;5.13;;
78563;SDS011;67856;47.754;19.088;2023-12-04T12:32:11;10.43;;;4.55;;
78563;SDS011;67856;47.754;19.088;2023-12-04T12:35:13;9.80;;;4.60;;
78563;SDS011;67856;47.754;19.088;2023-12-04T12:38:16;10.53;;;4.40;;
78563;SDS011;67856;47.754;19.088;2023-12-04T12:41:18;13.02;;;4.60;;
78563;SDS011;67856;47.754;19.088;2023-12-04T12:44:21;12.63;;;4.40;;
78563;SDS011;67856;47.754;19.088;2023-12-04T12:47:23;12.02;;;4.20;;
78563;SDS011;67856;47.754;19.088;2023-12-04T12:50:26;10.80;;;5.10;;
78563;SDS011;67856;47.754;19.088;2023-12-04T12:53:31;11.40;;;4.27;;
78563;SDS011;67856;47.754;19.088;2023-12-04T12:56:35;7.95;;;4.40;;
78563;SDS011;67856;47.754;19.088;2023-12-04T12:59:38;11.00;;;5.20;;
78563;SDS011;67856;47.754;19.088;2023-12-04T13:02:44;11.70;;;4.47;;
78563;SDS011;67856;47.754;19.088;2023-12-04T13:05:47;12.35;;;4.68;;
78563;SDS011;67856;47.754;19.088;2023-12-04T13:08:49;19.90;;;5.33;;
78563;SDS011;67856;47.754;19.088;2023-12-04T13:11:52;11.27;;;5.15;;
78563;SDS011;67856;47.754;19.088;2023-12-04T13:14:55;11.80;;;5.10;;
78563;SDS011;67856;47.754;19.088;2023-12-04T13:17:57;14.32;;;4.97;;
78563;SDS011;67856;47.754;19.088;2023-12-04T13:21:00;13.93;;;5.35;;
78563;SDS011;67856;47.754;19.088;2023-12-04T13:24:06;15.53;;;5.10;;
78563;SDS011;67856;47.754;19.088;2023-12-04T13:27:11;15.70;;;5.30;;
78563;SDS011;67856;47.754;19.088;2023-12-04T13:30:13;12.60;;;5.68;;
78563;SDS011;67856;47.754;19.088;2023-12-04T13:33:16;14.75;;;5.25;;
78563;SDS011;67856;47.754;19.088;2023-12-04T13:36:18;15.20;;;5.38;;
78563;SDS011;67856;47.754;19.088;2023-12-04T13:39:21;13.53;;;6.00;;
78563;SDS011;67856;47.754;19.088;2023-12-04T13:42:50;15.32;;;5.90;;
78563;SDS011;67856;47.754;19.088;2023-12-04T13:46:11;10.50;;;5.20;;
78563;SDS011;67856;47.754;19.088;2023-12-04T13:49:13;12.60;;;5.43;;
78563;SDS011;67856;47.754;19.088;2023-12-04T13:52:16;14.93;;;5.13;;
78563;SDS011;67856;47.754;19.088;2023-12-04T13:55:24;15.97;;;5.47;;
78563;SDS011;67856;47.754;19.088;2023-12-04T13:58:52;14.63;;;5.28;;
78563;SDS011;67856;47.754;19.088;2023-12-04T14:01:59;20.77;;;5.47;;
78563;SDS011;67856;47.754;19.088;2023-12-04T14:05:03;16.08;;;5.30;;
78563;SDS011;67856;47.754;19.088;2023-12-04T14:08:06;11.27;;;5.97;;
78563;SDS011;67856;47.754;19.088;2023-12-04T14:11:09;12.27;;;5.53;;
78563;SDS011;67856;47.754;19.088;2023-12-04T14:14:13;15.73;;;5.60;;
78563;SDS011;67856;47.754;19.088;2023-12-04T14:17:16;15.50;;;5.60;;
78563;SDS011;67856;47.754;19.088;2023-12-04T14:20:18;12.65;;;5.40;;
78563;SDS011;67856;47.754;19.088;2023-12-04T14:23:23;14.77;;;6.65;;
78563;SDS011;67856;47.754;19.088;2023-12-04T14:26:26;19.50;;;8.37;;
78563;SDS011;67856;47.754;19.088;2023-12-04T14:29:33;14.57;;;6.57;;
78563;SDS011;67856;47.754;19.088;2023-12-04T14:32:39;21.27;;;7.75;;
78563;SDS011;67856;47.754;19.088;2023-12-04T14:35:56;18.20;;;7.90;;
78563;SDS011;67856;47.754;19.088;2023-12-04T14:38:58;17.33;;;7.95;;
78563;SDS011;67856;47.754;19.088;2023-12-04T14:42:03;17.07;;;7.70;;
78563;SDS011;67856;47.754;19.088;2023-12-04T14:45:06;19.60;;;6.88;;
78563;SDS011;67856;47.754;19.088;2023-12-04T14:48:08;18.83;;;7.43;;
78563;SDS011;67856;47.754;19.088;2023-12-04T14:51:11;18.27;;;7.13;;
78563;SDS011;67856;47.754;19.088;2023-12-04T14:54:14;27.55;;;7.70;;
78563;SDS011;67856;47.754;19.088;2023-12-04T14:57:39;17.00;;;7.43;;
78563;SDS011;67856;47.754;19.088;2023-12-04T15:00:42;19.67;;;7.15;;
78563;SDS011;67856;47.754;19.088;2023-12-04T15:03:50;17.25;;;7.05;;
78563;SDS011;67856;47.754;19.088;2023-12-04T15:07:11;29.52;;;9.27;;
78563;SDS011;67856;47.754;19.088;2023-12-04T15:10:22;22.13;;;8.18;;
78563;SDS011;67856;47.754;19.088;2023-12-04T15:13:45;20.13;;;7.93;;
78563;SDS011;67856;47.754;19.088;2023-12-04T15:17:06;16.92;;;7.15;;
78563;SDS011;67856;47.754;19.088;2023-12-04T15:20:31;21.05;;;7.43;;
78563;SDS011;67856;47.754;19.088;2023-12-04T15:23:40;17.83;;;7.47;;
78563;SDS011;67856;47.754;19.088;2023-12-04T15:26:42;17.90;;;7.65;;
78563;SDS011;67856;47.754;19.088;2023-12-04T15:29:45;19.67;;;7.70;;
78563;SDS011;67856;47.754;19.088;2023-12-04T15:32:47;17.15;;;7.20;;
78563;SDS011;67856;47.754;19.088;2023-12-04T15:35:50;20.80;;;8.15;;
78563;SDS011;67856;47.754;19.088;2023-12-04T15:38:52;16.20;;;7.43;;
78563;SDS011;67856;47.754;19.088;2023-12-04T15:41:55;20.30;;;7.07;;
78563;SDS011;67856;47.754;19.088;2023-12-04T15:44:57;24.10;;;7.63;;
78563;SDS011;67856;47.754;19.088;2023-12-04T15:48:01;19.50;;;6.68;;
78563;SDS011;67856;47.754;19.088;2023-12-04T15:51:03;16.45;;;7.20;;
78563;SDS011;67856;47.754;19.088;2023-12-04T15:54:07;17.17;;;8.00;;
78563;SDS011;67856;47.754;19.088;2023-12-04T15:57:10;19.17;;;7.60;;
78563;SDS011;67856;47.754;19.088;2023-12-04T16:00:13;15.73;;;7.83;;
78563;SDS011;67856;47.754;19.088;2023-12-04T16:03:17;20.48;;;7.47;;
78563;SDS011;67856;47.754;19.088;2023-12-04T16:06:20;18.00;;;8.30;;
78563;SDS011;67856;47.754;19.088;2023-12-04T16:09:22;23.67;;;7.50;;
78563;SDS011;67856;47.754;19.088;2023-12-04T16:12:26;20.15;;;7.40;;
78563;SDS011;67856;47.754;19.088;2023-12-04T16:15:29;14.77;;;7.23;;
78563;SDS011;67856;47.754;19.088;2023-12-04T16:18:32;16.58;;;7.68;;
78563;SDS011;67856;47.754;19.088;2023-12-04T16:21:35;14.40;;;6.88;;
78563;SDS011;67856;47.754;19.088;2023-12-04T16:24:37;19.02;;;7.35;;
78563;SDS011;67856;47.754;19.088;2023-12-04T16:27:40;19.48;;;7.88;;
78563;SDS011;67856;47.754;19.088;2023-12-04T16:30:43;20.53;;;7.53;;
78563;SDS011;67856;47.754;19.088;2023-12-04T16:33:47;19.70;;;6.72;;
78563;SDS011;67856;47.754;19.088;2023-12-04T16:36:52;17.27;;;6.90;;
78563;SDS011;67856;47.754;19.088;2023-12-04T16:39:54;17.73;;;6.60;;
78563;SDS011;67856;47.754;19.088;2023-12-04T16:42:56;15.02;;;6.55;;
78563;SDS011;67856;47.754;19.088;2023-12-04T16:46:04;19.17;;;6.73;;
78563;SDS011;67856;47.754;19.088;2023-12-04T16:49:07;15.18;;;6.82;;
78563;SDS011;67856;47.754;19.088;2023-12-04T16:52:09;13.40;;;6.95;;
78563;SDS011;67856;47.754;19.088;2023-12-04T16:55:18;15.07;;;6.90;;
78563;SDS011;67856;47.754;19.088;2023-12-04T16:58:20;13.65;;;7.68;;
78563;SDS011;67856;47.754;19.088;2023-12-04T17:01:23;12.87;;;6.23;;
78563;SDS011;67856;47.754;19.088;2023-12-04T17:04:25;15.82;;;6.40;;
78563;SDS011;67856;47.754;19.088;2023-12-04T17:07:28;12.13;;;6.60;;
78563;SDS011;67856;47.754;19.088;2023-12-04T17:10:31;16.45;;;6.47;;
78563;SDS011;67856;47.754;19.088;2023-12-04T17:13:33;14.07;;;6.20;;
78563;SDS011;67856;47.754;19.088;2023-12-04T17:16:36;18.77;;;6.70;;
78563;SDS011;67856;47.754;19.088;2023-12-04T17:19:38;14.50;;;7.25;;
78563;SDS011;67856;47.754;19.088;2023-12-04T17:22:41;14.13;;;6.60;;
78563;SDS011;67856;47.754;19.088;2023-12-04T17:25:45;15.25;;;6.50;;
78563;SDS011;67856;47.754;19.088;2023-12-04T17:28:49;13.00;;;6.60;;
78563;SDS011;67856;47.754;19.088;2023-12-04T17:31:52;15.50;;;6.43;;
78563;SDS011;67856;47.754;19.088;2023-12-04T17:34:54;13.40;;;7.03;;
78563;SDS011;67856;47.754;19.088;2023-12-04T17:37:57;15.00;;;6.53;;
78563;SDS011;67856;47.754;19.088;2023-12-04T17:40:59;12.23;;;6.97;;
78563;SDS011;67856;47.754;19.088;2023-12-04T17:44:01;13.88;;;7.00;;
78563;SDS011;67856;47.754;19.088;2023-12-04T17:47:05;16.83;;;7.80;;
78563;SDS011;67856;47.754;19.088;2023-12-04T17:50:07;12.10;;;7.32;;
78563;SDS011;67856;47.754;19.088;2023-12-04T17:53:11;14.23;;;7.63;;
78563;SDS011;67856;47.754;19.088;2023-12-04T17:56:14;13.73;;;7.65;;
78563;SDS011;67856;47.754;19.088;2023-12-04T17:59:17;9.98;;;6.55;;
78563;SDS011;67856;47.754;19.088;2023-12-04T18:02:19;13.17;;;6.87;;
78563;SDS011;67856;47.754;19.088;2023-12-04T18:05:22;13.30;;;7.00;;
78563;SDS011;67856;47.754;19.088;2023-12-04T18:08:25;13.20;;;7.10;;